Terminal Aerodrome Forecast
Issued by NWS Louisville, KY

Home | Current Version | Previous Version | Text Only | Print | Product List | Glossary On
Versions: 1 2 3 4 5 6 7 8 9 10 11 12 13 14 15 16 17 18 19 20 21 22 23 24
000
FTUS43 KLMK 010700 AAA
TAFLEX
TAF AMD
KLEX 010742Z 0108/0206 20005KT 6SM BR FEW015 BKN120
      TEMPO 0110/0114 3SM BR BKN015
     FM011400 26007KT P6SM SCT015 BKN040
     FM012100 25006KT P6SM VCTS BKN040CB=

USA.gov is the U.S. government's official web portal to all federal, state and local government web resources and services.